Ennis, Ireland
Current Conditions -  °F | °C
As of 4:00 PM on Thursday 29 Jan 2015 (Local Time) from EINN Reporting Station
Few Clouds Few Clouds  
Wind Chill: -1°   Ceiling: Unl
Heat Index:   Visibility: 6mi
Dew Point: -3°   Wind: 17mph
Humidity: 61%   Direction: 300°WNW
Pressure: 29.15"   Gusts: NA
Location:  52.86°N, 8.99°W
Report Text: EINN 291600Z 30015KT 9999 FEW018CB 04/M03 Q0987 NOSIG
Loading
Personal Weather Stations






























Interactive Weather Map New forecast layout! Learn more

10-Day Weather Forecast

Advertisements
Track Severe Weather on mobile